Time;durP1;ratioP1;P1;durP2;ratioP2;P2;SDS_P1;SDS_P2;PMS_P1;PMS_P2;Temp;Humidity;BMP_temperature;BMP_pressure;BME280_temperature;BME280_humidity;BME280_pressure;Samples;Min_cycle;Max_cycle;Signal;HPM_P1;HPM_P2
2024/01/29 19:29:36;;;;;;;72.30;30.63;;;2.80;99.90;;;;;;5082245;27;20950;-53
2024/01/29 19:32:02;;;;;;;76.22;33.83;;;2.40;99.90;;;;;;5083260;28;20092;-50
2024/01/29 19:34:28;;;;;;;80.72;35.17;;;2.30;99.90;;;;;;5083834;28;20101;-53
2024/01/29 19:36:53;;;;;;;79.45;35.28;;;2.20;99.90;;;;;;5083242;28;20048;-52
2024/01/29 19:39:19;;;;;;;73.25;33.80;;;2.20;99.90;;;;;;5079410;28;20032;-52
2024/01/29 19:41:46;;;;;;;74.72;33.67;;;2.20;99.90;;;;;;5081866;28;20061;-52
2024/01/29 19:44:12;;;;;;;86.50;37.13;;;2.10;99.90;;;;;;5095222;28;20103;-53
2024/01/29 19:46:44;;;;;;;75.32;39.15;;;2.10;99.90;;;;;;5083745;28;20194;-55
2024/01/29 19:49:12;;;;;;;102.85;44.60;;;2.00;99.90;;;;;;5083084;28;20028;-52
2024/01/29 19:51:37;;;;;;;83.75;39.35;;;2.00;99.90;;;;;;5083960;28;20032;-50
2024/01/29 19:54:03;;;;;;;84.00;40.28;;;1.80;99.90;;;;;;5085704;28;20085;-52
2024/01/29 19:56:29;;;;;;;94.47;44.13;;;1.80;99.90;;;;;;5084318;28;20085;-51
2024/01/29 19:58:55;;;;;;;108.03;48.63;;;1.80;99.90;;;;;;5082235;28;20686;-52
2024/01/29 20:01:21;;;;;;;91.07;45.58;;;1.80;99.90;;;;;;5082708;28;20094;-52
2024/01/29 20:03:47;;;;;;;90.28;42.00;;;1.70;99.90;;;;;;5083997;28;20047;-50
2024/01/29 20:06:13;;;;;;;99.78;43.55;;;1.70;99.90;;;;;;5084864;28;20042;-51
2024/01/29 20:08:38;;;;;;;83.45;37.72;;;1.80;99.90;;;;;;5070016;28;20033;-51
2024/01/29 20:11:04;;;;;;;85.35;39.28;;;1.80;99.90;;;;;;5065139;28;20094;-52
2024/01/29 20:13:30;;;;;;;75.70;35.88;;;1.90;99.90;;;;;;5066276;28;20049;-52
2024/01/29 20:16:00;;;;;;;76.65;36.92;;;2.00;99.90;;;;;;5072677;28;20067;-52
2024/01/29 20:18:27;;;;;;;71.82;36.03;;;2.10;99.90;;;;;;5072207;28;20028;-51
2024/01/29 20:20:53;;;;;;;115.60;51.47;;;2.20;99.90;;;;;;5063728;28;20039;-51
2024/01/29 20:23:19;;;;;;;108.65;50.97;;;2.20;99.90;;;;;;5065271;28;20036;-52
2024/01/29 20:25:44;;;;;;;116.53;52.45;;;1.90;99.90;;;;;;5064612;28;20031;-51
2024/01/29 20:28:10;;;;;;;119.60;55.03;;;1.70;99.90;;;;;;5065979;28;20052;-51
2024/01/29 20:30:37;;;;;;;134.30;61.15;;;1.70;99.90;;;;;;5084183;28;20470;-52
2024/01/29 20:33:03;;;;;;;104.20;47.80;;;1.70;99.90;;;;;;5083274;28;20059;-52
2024/01/29 20:35:28;;;;;;;133.82;59.85;;;1.60;99.90;;;;;;5082954;28;20060;-53
2024/01/29 20:37:55;;;;;;;130.73;59.38;;;1.70;99.90;;;;;;5082686;28;20029;-51
2024/01/29 20:40:20;;;;;;;124.43;57.83;;;1.70;99.90;;;;;;5072737;28;20405;-53
2024/01/29 20:42:46;;;;;;;124.97;57.22;;;1.60;99.90;;;;;;5069171;28;20136;-53
2024/01/29 20:45:14;;;;;;;126.10;57.00;;;1.60;99.90;;;;;;5068844;28;20029;-52
2024/01/29 20:47:41;;;;;;;136.15;60.72;;;1.50;99.90;;;;;;5066338;28;20033;-52
2024/01/29 20:50:07;;;;;;;126.28;59.20;;;1.40;99.90;;;;;;5069144;28;20075;-52
2024/01/29 20:52:33;;;;;;;128.20;58.33;;;1.30;99.90;;;;;;5056718;28;20060;-50
2024/01/29 20:54:58;;;;;;;130.85;59.50;;;1.30;99.90;;;;;;5049147;28;20460;-52
2024/01/29 20:57:24;;;;;;;127.72;56.35;;;1.30;99.90;;;;;;5049285;28;20021;-52
2024/01/29 20:59:50;;;;;;;136.10;60.38;;;1.20;99.90;;;;;;5048573;28;20021;-52
2024/01/29 21:02:16;;;;;;;122.05;56.42;;;1.00;99.90;;;;;;5049133;28;20044;-50
2024/01/29 21:04:42;;;;;;;117.25;53.85;;;1.00;99.90;;;;;;5048862;28;20098;-52
2024/01/29 21:07:08;;;;;;;115.63;53.15;;;1.10;99.90;;;;;;5049082;28;20768;-52
2024/01/29 21:09:37;;;;;;;119.10;50.85;;;1.10;99.90;;;;;;5048996;28;20025;-52
2024/01/29 21:12:04;;;;;;;102.85;46.03;;;1.10;99.90;;;;;;5051067;28;20041;-54
2024/01/29 21:14:30;;;;;;;111.88;51.65;;;1.20;99.90;;;;;;5076285;28;20043;-52
2024/01/29 21:16:55;;;;;;;123.60;54.05;;;1.20;99.90;;;;;;5073019;28;20417;-50
2024/01/29 21:19:21;;;;;;;113.55;50.40;;;1.20;99.90;;;;;;5068662;28;20025;-51
2024/01/29 21:21:47;;;;;;;110.13;49.85;;;1.10;99.90;;;;;;5068472;28;20031;-52
2024/01/29 21:24:24;;;;;;;119.93;52.13;;;1.00;99.90;;;;;;5068173;28;20043;-53
2024/01/29 21:26:50;;;;;;;114.07;51.08;;;1.00;99.90;;;;;;5030767;28;20106;-50
2024/01/29 21:29:15;;;;;;;109.03;49.92;;;0.90;99.90;;;;;;5047248;28;20496;-52
2024/01/29 21:31:41;;;;;;;107.15;48.35;;;0.90;99.90;;;;;;5047961;28;20060;-55
2024/01/29 21:34:06;;;;;;;103.10;48.08;;;0.90;99.90;;;;;;5060867;28;20431;-51
2024/01/29 21:36:32;;;;;;;113.53;50.92;;;1.00;99.90;;;;;;5068243;28;20117;-50
2024/01/29 21:38:57;;;;;;;106.32;50.08;;;0.90;99.90;;;;;;5067895;28;20028;-52
2024/01/29 21:41:23;;;;;;;107.75;49.40;;;0.90;99.90;;;;;;5067663;28;20037;-51
2024/01/29 21:43:49;;;;;;;107.25;49.90;;;0.90;99.90;;;;;;5067428;28;20017;-53
2024/01/29 21:46:14;;;;;;;92.50;42.28;;;0.80;99.90;;;;;;5066773;28;20025;-51
2024/01/29 21:48:40;;;;;;;89.80;42.78;;;0.90;99.90;;;;;;5066299;28;20043;-50
2024/01/29 21:51:06;;;;;;;74.65;34.22;;;0.90;99.90;;;;;;5066443;28;20162;-52
2024/01/29 21:53:31;;;;;;;78.22;34.70;;;1.00;99.90;;;;;;5067338;28;20089;-52
2024/01/29 21:55:58;;;;;;;72.93;32.95;;;1.20;99.90;;;;;;5067477;28;20028;-52
2024/01/29 21:58:24;;;;;;;71.28;33.53;;;1.10;99.90;;;;;;5068035;28;20605;-53
2024/01/29 22:00:49;;;;;;;64.93;28.38;;;1.30;99.90;;;;;;5057825;28;20044;-52
2024/01/29 22:03:15;;;;;;;61.45;30.42;;;1.40;99.90;;;;;;5063037;28;20158;-51
2024/01/29 22:05:40;;;;;;;64.25;29.05;;;1.50;99.90;;;;;;5068855;28;20044;-52
2024/01/29 22:08:10;;;;;;;55.00;26.48;;;1.50;99.90;;;;;;5047710;28;20376;-50
2024/01/29 22:10:36;;;;;;;56.63;26.52;;;1.40;99.90;;;;;;5068202;28;20063;-50
2024/01/29 22:13:02;;;;;;;59.92;27.40;;;1.50;99.90;;;;;;5068125;28;20079;-50
2024/01/29 22:15:27;;;;;;;62.50;28.50;;;1.60;99.90;;;;;;5068111;28;20040;-53
2024/01/29 22:17:53;;;;;;;62.13;27.30;;;1.60;99.90;;;;;;5067987;28;20499;-52
2024/01/29 22:20:19;;;;;;;58.97;26.13;;;1.60;99.90;;;;;;5068223;28;20024;-51
2024/01/29 22:22:44;;;;;;;58.10;24.42;;;1.60;99.90;;;;;;5067819;28;20369;-51
2024/01/29 22:25:10;;;;;;;51.13;22.40;;;1.60;99.90;;;;;;5068115;28;20021;-52
2024/01/29 22:27:36;;;;;;;51.03;23.35;;;1.70;99.90;;;;;;5067502;28;20117;-51
2024/01/29 22:30:02;;;;;;;56.38;23.42;;;1.80;99.90;;;;;;5068024;28;20024;-51
2024/01/29 22:32:27;;;;;;;54.25;22.13;;;1.80;99.90;;;;;;5067742;28;20089;-52
2024/01/29 22:34:53;;;;;;;52.90;24.23;;;1.80;99.90;;;;;;5067078;28;20036;-49
2024/01/29 22:37:19;;;;;;;51.45;22.88;;;1.90;99.90;;;;;;5068034;28;20020;-52
2024/01/29 22:39:44;;;;;;;49.05;22.95;;;1.90;99.90;;;;;;5067306;28;20017;-51
2024/01/29 22:42:10;;;;;;;47.28;20.20;;;1.80;99.90;;;;;;5067191;28;20058;-50
2024/01/29 22:44:35;;;;;;;57.88;23.65;;;1.90;99.90;;;;;;5067904;28;20036;-50
2024/01/29 22:47:01;;;;;;;49.50;22.15;;;1.90;99.90;;;;;;5083259;28;20032;-51
2024/01/29 22:49:27;;;;;;;58.05;24.33;;;1.90;99.90;;;;;;5067577;28;20154;-54
2024/01/29 22:51:52;;;;;;;53.67;22.05;;;1.90;99.90;;;;;;5066100;28;20067;-50
2024/01/29 22:54:18;;;;;;;50.35;21.60;;;1.80;99.90;;;;;;5066829;28;20036;-54
2024/01/29 22:56:44;;;;;;;47.63;20.20;;;1.80;99.90;;;;;;5067155;28;20028;-53
2024/01/29 22:59:09;;;;;;;44.97;18.77;;;1.80;99.90;;;;;;5065979;28;20043;-53
2024/01/29 23:01:35;;;;;;;42.15;18.55;;;1.80;99.90;;;;;;5067452;28;20025;-51
2024/01/29 23:04:01;;;;;;;37.70;17.23;;;1.90;99.90;;;;;;5067199;28;20070;-52
2024/01/29 23:06:27;;;;;;;40.70;18.87;;;1.90;99.90;;;;;;5068020;28;20115;-52
2024/01/29 23:08:52;;;;;;;40.08;18.38;;;2.00;99.90;;;;;;5067362;28;20131;-51
2024/01/29 23:11:18;;;;;;;33.72;16.45;;;2.00;99.90;;;;;;5065386;28;20077;-52
2024/01/29 23:13:44;;;;;;;37.85;17.05;;;2.00;99.90;;;;;;5067366;28;20025;-52
2024/01/29 23:16:10;;;;;;;33.55;16.35;;;2.00;99.90;;;;;;5067789;28;20082;-51
2024/01/29 23:18:36;;;;;;;31.70;15.65;;;2.00;99.90;;;;;;5067046;28;20089;-52
2024/01/29 23:21:02;;;;;;;30.42;14.63;;;2.00;99.90;;;;;;5067371;28;20020;-50
2024/01/29 23:23:28;;;;;;;27.60;14.40;;;2.00;99.90;;;;;;5067487;28;20553;-53
2024/01/29 23:25:53;;;;;;;35.15;15.73;;;2.10;99.90;;;;;;5066393;28;20040;-50
2024/01/29 23:28:19;;;;;;;32.38;16.00;;;2.00;99.90;;;;;;5065815;28;20718;-49
2024/01/29 23:30:45;;;;;;;36.67;15.95;;;2.00;99.90;;;;;;5066029;28;20175;-52
2024/01/29 23:33:11;;;;;;;30.83;15.30;;;2.00;99.90;;;;;;5066432;28;20452;-50
2024/01/29 23:35:37;;;;;;;34.23;16.23;;;2.00;99.90;;;;;;5066362;28;20028;-52
2024/01/29 23:38:03;;;;;;;30.92;15.75;;;2.00;99.90;;;;;;5066485;28;20035;-51
2024/01/29 23:40:28;;;;;;;30.23;14.05;;;2.00;99.90;;;;;;5065745;28;20024;-50
2024/01/29 23:42:54;;;;;;;30.00;15.00;;;2.00;99.90;;;;;;5066213;28;20020;-53
2024/01/29 23:45:20;;;;;;;34.95;16.02;;;2.00;99.90;;;;;;5066466;28;20448;-52
2024/01/29 23:47:46;;;;;;;35.97;15.00;;;2.00;99.90;;;;;;5064857;28;20036;-51
2024/01/29 23:50:12;;;;;;;30.80;14.20;;;2.00;99.90;;;;;;5066418;28;20094;-52
2024/01/29 23:52:38;;;;;;;35.20;15.23;;;1.90;99.90;;;;;;5066041;28;20526;-53
2024/01/29 23:55:04;;;;;;;33.08;12.95;;;1.90;99.90;;;;;;5066116;28;20032;-52
2024/01/29 23:57:30;;;;;;;29.37;13.10;;;1.90;99.90;;;;;;5066387;28;20042;-51
2024/01/29 23:59:56;;;;;;;34.27;13.80;;;1.90;99.90;;;;;;5066144;28;20052;-57
